createdAt,value
2022-12-22T00:01:50.409Z,96622.50
2022-12-22T00:07:12.602Z,96598.66
2022-12-22T00:12:34.674Z,96603.25
2022-12-22T00:17:55.435Z,96607.81
2022-12-22T00:23:17.561Z,96591.94
2022-12-22T00:28:38.027Z,96581.56
2022-12-22T00:33:59.005Z,96587.06
2022-12-22T00:39:21.082Z,96577.75
2022-12-22T00:44:41.924Z,96571.31
2022-12-22T00:50:06.267Z,96575.44
2022-12-22T00:55:33.691Z,96564.72
2022-12-22T01:00:54.430Z,96562.47
2022-12-22T01:06:18.341Z,96556.63
2022-12-22T01:11:40.344Z,96528.44
2022-12-22T01:17:01.061Z,96538.16
2022-12-22T01:22:21.984Z,96548.91
2022-12-22T01:27:43.990Z,96536.84
2022-12-22T01:33:04.819Z,96538.06
2022-12-22T01:38:25.468Z,96549.47
2022-12-22T01:43:48.096Z,96546.81
2022-12-22T01:49:08.903Z,96576.03
2022-12-22T01:54:31.677Z,96572.47
2022-12-22T01:59:53.883Z,96578.66
2022-12-22T02:05:17.259Z,96576.00
2022-12-22T02:10:52.827Z,96570.03
2022-12-22T02:16:20.160Z,96574.25
2022-12-22T02:21:44.043Z,96565.28
2022-12-22T02:27:08.930Z,96587.78
2022-12-22T02:32:30.275Z,96594.09
2022-12-22T02:38:00.237Z,96589.56
2022-12-22T02:43:32.129Z,96593.63
2022-12-22T02:48:59.571Z,96581.47
2022-12-22T02:54:22.399Z,96584.78
2022-12-22T02:59:44.226Z,96590.25
2022-12-22T03:05:04.979Z,96584.63
2022-12-22T03:10:26.886Z,96573.84
2022-12-22T03:15:48.781Z,96567.50
2022-12-22T03:21:09.669Z,96564.28
2022-12-22T03:26:11.610Z,96558.69
2022-12-22T03:31:15.179Z,96555.41
2022-12-22T03:36:17.151Z,96551.34
2022-12-22T03:41:37.859Z,96542.66
2022-12-22T03:46:41.190Z,96536.16
2022-12-22T03:51:45.992Z,96543.97
2022-12-22T03:56:48.479Z,96558.38
2022-12-22T04:01:53.966Z,96567.38
2022-12-22T04:06:56.403Z,96562.13
2022-12-22T04:12:17.179Z,96557.69
2022-12-22T04:17:20.467Z,96555.41
2022-12-22T04:22:22.447Z,96551.81
2022-12-22T04:27:24.456Z,96543.16
2022-12-22T04:32:27.740Z,96531.06
2022-12-22T04:37:29.783Z,96522.66
2022-12-22T04:42:31.736Z,96520.06
2022-12-22T04:47:35.028Z,96517.13
2022-12-22T04:52:36.975Z,96511.56
2022-12-22T04:57:41.090Z,96510.41
2022-12-22T05:02:44.683Z,96505.22
2022-12-22T05:07:46.801Z,96507.28
2022-12-22T05:12:54.651Z,96500.44
2022-12-22T05:17:59.126Z,96520.56
2022-12-22T05:23:01.117Z,96519.66
2022-12-22T05:28:03.255Z,96522.41
2022-12-22T05:33:06.568Z,96523.84
2022-12-22T05:38:08.536Z,96526.72
2022-12-22T05:43:10.524Z,96533.84
2022-12-22T05:48:13.932Z,96530.81
2022-12-22T05:53:15.877Z,96530.06
2022-12-22T05:58:17.843Z,96530.25
2022-12-22T06:03:21.177Z,96528.44
2022-12-22T06:08:23.686Z,96525.13
2022-12-22T06:13:26.592Z,96503.91
2022-12-22T06:18:31.044Z,96488.56
2022-12-22T06:23:33.037Z,96485.47
2022-12-22T06:28:35.000Z,96481.84
2022-12-22T06:33:38.543Z,96477.34
2022-12-22T06:38:40.625Z,96486.31
2022-12-22T06:43:42.599Z,96506.28
2022-12-22T06:48:46.897Z,96504.94
2022-12-22T06:53:48.878Z,96493.38
2022-12-22T06:58:50.921Z,96480.50
2022-12-22T07:03:54.295Z,96475.13
2022-12-22T07:08:56.293Z,96473.19
2022-12-22T07:13:58.243Z,96467.03
2022-12-22T07:19:01.623Z,96464.22
2022-12-22T07:24:04.604Z,96447.56
2022-12-22T07:29:06.711Z,96436.59
2022-12-22T07:34:09.999Z,96431.84
2022-12-22T07:39:12.961Z,96418.53
2022-12-22T07:44:14.930Z,96416.81
2022-12-22T07:49:36.873Z,96418.44
2022-12-22T07:54:42.127Z,96416.59
2022-12-22T07:59:44.413Z,96411.78
2022-12-22T08:04:47.833Z,96405.09
2022-12-22T08:09:49.859Z,96394.75
2022-12-22T08:14:51.853Z,96390.38
2022-12-22T08:19:55.466Z,96396.38
2022-12-22T08:24:57.621Z,96390.81
2022-12-22T08:30:02.121Z,96394.78
2022-12-22T08:35:07.959Z,96392.81
2022-12-22T08:40:14.469Z,96394.75
2022-12-22T08:45:16.655Z,96388.13
2022-12-22T08:50:20.196Z,96404.03
2022-12-22T08:55:22.147Z,96402.38
2022-12-22T09:00:24.614Z,96397.56
2022-12-22T09:05:27.917Z,96386.63
2022-12-22T09:10:29.736Z,96367.28
2022-12-22T09:15:31.679Z,96351.00
2022-12-22T09:20:34.971Z,96343.59
2022-12-22T09:25:36.942Z,96340.31
2022-12-22T09:30:39.025Z,96336.91
2022-12-22T09:35:42.337Z,96341.66
2022-12-22T09:40:44.422Z,96326.09
2022-12-22T09:45:46.447Z,96320.59
2022-12-22T09:50:49.922Z,96310.97
2022-12-22T09:55:52.017Z,96309.09
2022-12-22T10:01:07.910Z,96299.72
2022-12-22T10:06:17.283Z,96291.66
2022-12-22T10:11:19.557Z,96278.66
2022-12-22T10:16:24.911Z,96299.28
2022-12-22T10:21:28.341Z,96290.25
2022-12-22T10:26:33.551Z,96275.22
2022-12-22T10:31:39.968Z,96286.22
2022-12-22T10:36:48.797Z,96284.09
2022-12-22T10:41:55.097Z,96272.91
2022-12-22T10:46:59.838Z,96263.56
2022-12-22T10:52:14.633Z,96236.94
2022-12-22T10:57:28.748Z,96219.50
2022-12-22T11:02:38.053Z,96232.50
2022-12-22T11:07:44.904Z,96226.22
2022-12-22T11:13:07.274Z,96220.91
2022-12-22T11:18:16.655Z,96189.56
2022-12-22T11:23:30.046Z,96219.56
2022-12-22T11:28:43.802Z,96196.88
2022-12-22T11:34:02.102Z,96204.59
2022-12-22T11:39:12.221Z,96211.94
2022-12-22T11:44:34.848Z,96196.47
2022-12-22T11:50:03.328Z,96164.78
2022-12-22T11:55:30.890Z,96177.19
2022-12-22T12:01:12.228Z,96163.03
2022-12-22T12:06:25.116Z,96168.81
2022-12-22T12:11:35.722Z,96151.78
2022-12-22T12:16:44.238Z,96141.22
2022-12-22T12:21:51.891Z,96131.41
2022-12-22T12:27:04.309Z,96140.81
2022-12-22T12:32:14.785Z,96155.31
2022-12-22T12:37:26.437Z,96142.31
2022-12-22T12:42:33.443Z,96121.06
2022-12-22T12:47:35.824Z,96120.44
2022-12-22T12:53:14.918Z,96121.00
2022-12-22T12:58:49.586Z,96150.00
2022-12-22T13:04:07.171Z,96127.41
2022-12-22T13:14:57.785Z,96116.38
2022-12-22T13:20:00.063Z,96108.91
2022-12-22T13:25:03.963Z,96144.81
2022-12-22T13:30:14.218Z,96158.28
2022-12-22T13:35:42.998Z,96159.50
2022-12-22T13:40:44.189Z,96152.63
2022-12-22T13:45:50.730Z,96141.78
2022-12-22T13:50:54.983Z,96134.31
2022-12-22T13:55:57.496Z,96111.13
2022-12-22T14:01:17.024Z,96122.28
2022-12-22T14:06:29.601Z,96114.44
2022-12-22T14:11:31.575Z,96117.66
2022-12-22T14:16:35.137Z,96119.84
2022-12-22T14:21:37.213Z,96099.66
2022-12-22T14:26:39.440Z,96120.31
2022-12-22T14:31:53.967Z,96110.75
2022-12-22T14:36:58.765Z,96126.38
2022-12-22T14:42:02.671Z,96127.03
2022-12-22T14:47:22.884Z,96130.03
2022-12-22T14:52:33.188Z,96135.06
2022-12-22T14:57:37.874Z,96146.66
2022-12-22T15:02:51.246Z,96139.50
2022-12-22T15:08:06.661Z,96151.22
2022-12-22T15:13:15.418Z,96150.63
2022-12-22T15:18:23.777Z,96129.91
2022-12-22T15:23:25.847Z,96135.34
2022-12-22T15:28:27.950Z,96121.50
2022-12-22T15:33:31.371Z,96131.28
2022-12-22T15:38:38.555Z,96131.81
2022-12-22T15:43:58.661Z,96137.59
2022-12-22T15:49:02.537Z,96132.50
2022-12-22T15:54:04.730Z,96125.16
2022-12-22T15:59:12.535Z,96125.09
2022-12-22T16:04:15.857Z,96135.44
2022-12-22T16:09:21.665Z,96134.59
2022-12-22T16:14:24.500Z,96129.44
2022-12-22T16:19:27.836Z,96130.06
2022-12-22T16:24:34.816Z,96136.47
2022-12-22T16:29:37.386Z,96135.28
2022-12-22T16:34:40.819Z,96135.31
2022-12-22T16:39:43.087Z,96130.41
2022-12-22T16:44:48.042Z,96128.03
2022-12-22T16:49:51.812Z,96153.09
2022-12-22T16:54:53.846Z,96139.84
2022-12-22T16:59:58.878Z,96139.06
2022-12-22T17:05:03.167Z,96127.00
2022-12-22T17:10:06.345Z,96118.81
2022-12-22T17:15:16.418Z,96120.06
2022-12-22T17:20:22.146Z,96109.50
2022-12-22T17:25:26.982Z,96119.97
2022-12-22T17:30:29.072Z,96108.66
2022-12-22T17:35:41.055Z,96107.59
2022-12-22T17:40:44.531Z,96103.38
2022-12-22T17:45:47.861Z,96092.41
2022-12-22T17:50:51.439Z,96106.09
2022-12-22T17:56:09.534Z,96101.81
2022-12-22T18:01:23.684Z,96118.41
2022-12-22T18:06:33.514Z,96125.19
2022-12-22T18:11:39.116Z,96090.97
2022-12-22T18:16:44.360Z,96102.22
2022-12-22T18:21:48.233Z,96088.97
2022-12-22T18:26:50.224Z,96097.25
2022-12-22T18:31:52.309Z,96074.59
2022-12-22T18:36:55.718Z,96090.44
2022-12-22T18:41:58.497Z,96075.88
2022-12-22T18:47:00.574Z,96082.19
2022-12-22T18:52:04.561Z,96079.22
2022-12-22T18:57:13.174Z,96063.16
2022-12-22T19:02:22.162Z,96058.94
2022-12-22T19:07:25.848Z,96056.84
2022-12-22T19:12:27.923Z,96057.94
2022-12-22T19:17:30.026Z,96069.72
2022-12-22T19:22:33.456Z,96073.66
2022-12-22T19:27:35.466Z,96080.03
2022-12-22T19:32:41.893Z,96082.13
2022-12-22T19:37:46.288Z,96084.56
2022-12-22T19:42:50.965Z,96071.91
2022-12-22T19:47:53.872Z,96077.84
2022-12-22T19:52:59.176Z,96075.44
2022-12-22T19:58:02.348Z,96095.53
2022-12-22T20:03:05.997Z,96091.72
2022-12-22T20:08:10.052Z,96078.78
2022-12-22T20:13:16.272Z,96083.03
2022-12-22T20:18:21.760Z,96084.94
2022-12-22T20:23:26.567Z,96073.75
2022-12-22T20:28:30.670Z,96073.31
2022-12-22T20:33:33.543Z,96071.16
2022-12-22T20:38:39.817Z,96070.41
2022-12-22T20:43:41.908Z,96072.78
2022-12-22T20:48:47.034Z,96079.25
2022-12-22T20:53:51.295Z,96062.63
2022-12-22T20:58:54.163Z,96073.13
2022-12-22T21:03:56.273Z,96068.28
2022-12-22T21:09:00.402Z,96068.91
2022-12-22T21:14:02.451Z,96065.28
2022-12-22T21:19:04.655Z,96084.28
2022-12-22T21:24:08.243Z,96084.28
2022-12-22T21:29:13.881Z,96064.69
2022-12-22T21:34:15.973Z,96070.19
2022-12-22T21:39:26.017Z,96077.38
2022-12-22T21:44:29.592Z,96086.63
2022-12-22T21:49:33.344Z,96076.00
2022-12-22T21:54:36.688Z,96062.91
2022-12-22T21:59:38.908Z,96054.88
2022-12-22T22:04:40.885Z,96052.56
2022-12-22T22:09:44.216Z,96050.75
2022-12-22T22:14:46.262Z,96051.78
2022-12-22T22:19:48.230Z,96045.69
2022-12-22T22:24:51.572Z,96069.41
2022-12-22T22:29:53.541Z,96065.19
2022-12-22T22:34:55.548Z,96071.88
2022-12-22T22:39:58.906Z,96059.28
2022-12-22T22:45:00.894Z,96077.97
2022-12-22T22:50:06.575Z,96078.91
2022-12-22T22:55:12.627Z,96081.75
2022-12-22T23:00:17.720Z,96080.72
2022-12-22T23:05:22.936Z,96102.97
2022-12-22T23:10:26.565Z,96108.13
2022-12-22T23:15:28.524Z,96095.31
2022-12-22T23:20:30.507Z,96097.41
2022-12-22T23:25:34.469Z,96097.31
2022-12-22T23:30:38.260Z,96106.22
2022-12-22T23:35:42.129Z,96101.69
2022-12-22T23:40:54.503Z,96104.69
2022-12-22T23:45:57.231Z,96115.41
2022-12-22T23:50:59.207Z,96117.63
2022-12-22T23:56:03.594Z,96122.41
